Guffey, Colorado
Current Conditions -  °F | °C
As of 7:14 AM on Saturday 22 Nov 2014 (Local Time) from K4BM Reporting Station
Clear Clear  
Wind Chill:   Ceiling: Unl
Heat Index: 19°   Visibility: 10mi
Dew Point:   Wind: 16mph
Humidity: 58%   Direction: 250°WSW
Pressure: 29.98"   Gusts: 28mph
Location:  38.75°N, 105.52°W
Report Text: K4BM 221414Z AUTO 25014G24KT 10SM CLR M07/M14 A2998 RMK AO2
Loading
Personal Weather Stations






























Interactive Weather Map New forecast layout! Learn more

10-Day Weather Forecast

Advertisements
Track Severe Weather on mobile